Terminal Aerodrome Forecast
Issued by NWS St Louis, MO

Home | Current Version | Previous Version | Text Only | Print | Product List | Glossary On
Versions: 1 2 3 4 5 6 7 8 9 10 11 12 13 14 15 16 17 18 19 20 21 22 23 24 25 26 27 28 29
000
FTUS43 KLSX 142300
TAFSTL
TAF
KSTL 142331Z 1500/1606 13009KT P6SM BKN250
     FM150800 15009KT P6SM BKN015
     FM151000 15011KT 4SM -RA OVC009
     FM151500 15015KT P6SM BKN015
     FM151800 15015KT P6SM VCSH BKN025=

USA.gov is the U.S. government's official web portal to all federal, state and local government web resources and services.